This is the latest recevied weather packets stored in our database for station/object KO6MEX-13. If no packets are shown the sender has not sent any weather packets the latest 1 day(s).
| Time | Temp. | Humidity | Pressure | Rain* | Wind** | Luminosity | Snow |
|---|---|---|---|---|---|---|---|
| 1778030979 | 17.22° C | 57% | 1018.6 hPa | 0 mm | 0.45 m/s, 58° | 142 W/m² | - |
| 1778030676 | 17.78° C | 57% | 1018.6 hPa | 0 mm | 1.34 m/s, 3° | 46 W/m² | - |
| 1778030373 | 17.78° C | 57% | 1018.7 hPa | 0 mm | 0 m/s | 149 W/m² | - |
| 1778030070 | 17.78° C | 54% | 1018.6 hPa | 0 mm | 0 m/s | 193 W/m² | - |
| 1778029767 | 18.33° C | 54% | 1018.6 hPa | 0 mm | 0.45 m/s, 56° | 208 W/m² | - |
| 1778029466 | 18.89° C | 54% | 1018.7 hPa | 0 mm | 0.45 m/s, 65° | 105 W/m² | - |
| 1778029161 | 19.44° C | 53% | 1018.6 hPa | 0 mm | 0.45 m/s, 29° | 66 W/m² | - |
| 1778028860 | 19.44° C | 53% | 1018.6 hPa | 0 mm | 0.45 m/s, 165° | 273 W/m² | - |
| 1778028554 | 18.89° C | 55% | 1018.5 hPa | 0 mm | 0.89 m/s, 30° | 287 W/m² | - |
| 1778028253 | 19.44° C | 54% | 1018.6 hPa | 0 mm | 2.24 m/s, 238° | 306 W/m² | - |
| 1778027948 | 19.44° C | 52% | 1018.5 hPa | 0 mm | 0 m/s | 321 W/m² | - |
| 1778027645 | 19.44° C | 54% | 1018.5 hPa | 0 mm | 0 m/s | 318 W/m² | - |
| 1778027342 | 20° C | 52% | 1018.5 hPa | 0 mm | 0.45 m/s, 16° | 347 W/m² | - |
| 1778027038 | 19.44° C | 55% | 1018.6 hPa | 0 mm | 0 m/s | 379 W/m² | - |
| 1778026733 | 19.44° C | 57% | 1018.6 hPa | 0 mm | 1.79 m/s, 152° | 336 W/m² | - |
| 1778026430 | 20° C | 58% | 1018.4 hPa | 0 mm | 2.24 m/s, 234° | 402 W/m² | - |
| 1778026134 | 19.44° C | 58% | 1018.5 hPa | 0 mm | 0.45 m/s, 115° | 393 W/m² | - |
| 1778025825 | 18.89° C | 60% | 1018.3 hPa | 0 mm | 1.34 m/s, 166° | 422 W/m² | - |
| 1778025522 | 18.89° C | 61% | 1018.3 hPa | 0 mm | 2.24 m/s, 272° | 456 W/m² | - |
| 1778025219 | 19.44° C | 59% | 1018.5 hPa | 0 mm | 0.45 m/s, 194° | 288 W/m² | - |
| 1778024916 | 19.44° C | 59% | 1018.3 hPa | 0 mm | 1.34 m/s, 245° | 289 W/m² | - |
| 1778024614 | 18.89° C | 59% | 1018.3 hPa | 0 mm | 0.89 m/s, 200° | 311 W/m² | - |
| 1778024316 | 20° C | 59% | 1018.3 hPa | 0 mm | 0.45 m/s, 0° | 303 W/m² | - |
| 1778024009 | 20° C | 57% | 1018.3 hPa | 0 mm | 0.89 m/s, 242° | 356 W/m² | - |
| 1778023706 | 18.89° C | 60% | 1018.5 hPa | 0 mm | 1.34 m/s, 234° | 603 W/m² | - |
* Rain latest hour (hover to see other rain measurements)
** Current wind speed in m/s (hover to see current wind gust speed)